Latest Weather Observations for Merriwa

IDN60801

Issued at 4:32 pm EST Tuesday 28 April 2015 (issued every 30 minutes, with the page automatically refreshed every 10 minutes)

About weather observations | Map of weather stations | Latest weather observations for NSW | Other Formats
Station Details ID: 061287 Name: MERRIWA (ROSCOMMON) Lat: -32.19 Lon: 150.17 Height: 375.0 m
Data from the previous 72 hours. | See also: Recent months at Merriwa
Date/Time
EST
Temp
°C
App
Temp
°C
Dew
Point
Rel
Hum
%
Delta-T
°C
Wind Press
QNH
hPa
Press
MSL
hPa
Rain
since 9 am
mm
Dir
 
Spd
km/h
Gust
km/h
Spd
kts
Gust
kts
28/04:30pm 16.3 11.6 6.2 51 5.0 ESE 20 30 11 16 1024.0 1023.4 0.0
28/04:00pm 16.7 12.9 5.9 49 5.3 ESE 15 22 8 12 1023.8 1023.2 0.0
28/03:30pm 17.6 13.4 5.9 46 5.8 E 17 24 9 13 1023.7 1023.1 0.0
28/03:00pm 16.9 11.8 5.8 48 5.5 ESE 22 30 12 16 1023.6 1023.0 0.0
28/02:30pm 16.5 11.4 6.1 50 5.2 ESE 22 33 12 18 1023.6 1023.0 0.0
28/02:00pm 17.5 13.4 6.1 47 5.7 ESE 17 32 9 17 1023.7 1023.1 0.0
28/01:30pm 16.5 12.0 6.3 51 5.1 ESE 19 26 10 14 1023.8 1023.2 0.0
28/01:00pm 18.0 14.2 7.7 51 5.3 E 17 22 9 12 1024.2 1023.6 0.0
28/12:30pm 17.2 13.4 5.8 47 5.6 E 15 26 8 14 1024.6 1024.1 0.0
28/12:00pm 15.2 11.1 6.0 54 4.5 ESE 17 26 9 14 1025.2 1024.7 0.0
28/11:30am 16.8 12.4 7.4 54 4.8 ESE 20 28 11 15 1025.6 1025.1 0.0
28/11:00am 16.1 11.9 7.3 56 4.4 ESE 19 26 10 14 1025.9 1025.3 0.0
28/10:30am 15.6 12.6 7.9 60 3.9 E 13 22 7 12 1026.0 1025.4 0.0
28/10:00am 13.7 11.0 7.2 65 3.2 E 11 17 6 9 1026.2 1025.6 0.0
28/09:30am 13.1 11.3 7.8 70 2.7 E 7 11 4 6 1026.3 1025.7 0.0
28/09:00am 11.2 9.8 7.1 76 2.0 NW 4 7 2 4 1026.2 1025.6 0.0
28/08:30am 8.6 7.3 6.2 85 1.1 WSW 2 7 1 4 1026.1 1025.5 0.0
28/08:00am 7.0 5.0 6.4 96 0.3 WSW 6 7 3 4 1025.9 1025.3 0.0
28/07:30am 5.5 4.4 5.2 98 0.1 CALM 0 0 0 0 1025.5 1025.0 0.0
28/07:00am 3.2 1.7 2.9 98 0.1 CALM 0 0 0 0 1025.2 1024.7 0.0
28/06:30am 3.5 2.0 3.2 98 0.1 CALM 0 0 0 0 1024.8 1024.3 0.0
28/06:00am 3.3 0.7 3.0 98 0.1 WNW 6 7 3 4 1024.5 1023.9 0.0
28/05:30am 2.9 0.0 2.6 98 0.1 WSW 7 9 4 5 1024.3 1023.7 0.0
28/05:00am 3.0 0.7 2.6 97 0.2 WSW 4 6 2 3 1023.9 1023.3 0.0
28/04:30am 3.6 1.0 3.0 96 0.2 WSW 6 7 3 4 1023.6 1023.0 0.0
28/04:00am 4.4 1.9 3.8 96 0.3 SW 6 7 3 4 1023.3 1022.7 0.0
28/03:30am 4.4 3.0 3.8 96 0.3 CALM 0 0 0 0 1023.3 1022.7 0.0
28/03:00am 4.1 2.6 3.1 93 0.4 CALM 0 0 0 0 1023.2 1022.6 0.0
28/02:30am 4.9 3.6 4.0 94 0.4 CALM 0 0 0 0 1023.0 1022.4 0.0
28/02:00am 4.9 3.6 3.9 93 0.4 CALM 0 0 0 0 1023.1 1022.5 0.0
28/01:30am 4.8 3.3 3.1 89 0.7 CALM 0 0 0 0 1023.0 1022.4 0.0
28/01:00am 6.0 4.7 4.0 87 0.9 CALM 0 0 0 0 1023.1 1022.5 0.0
28/12:30am 7.1 4.7 4.4 83 1.2 W 6 7 3 4 1023.0 1022.4 0.0
28/12:00am 7.9 5.4 4.7 80 1.4 WNW 7 11 4 6 1023.0 1022.4 0.0
 
Date/Time
EST
Temp
°C
App
Temp
°C
Dew
Point
Rel
Hum
%
Delta-T
°C
Wind Press
QNH
hPa
Press
MSL
hPa
Rain
since 9 am
mm
Dir
 
Spd
km/h
Gust
km/h
Spd
kts
Gust
kts
27/11:30pm 8.3 5.1 5.2 81 1.4 WNW 11 15 6 8 1023.1 1022.5 0.0
27/11:00pm 8.1 4.5 5.0 81 1.4 NW 13 17 7 9 1022.8 1022.3 0.0
27/10:30pm 8.3 4.7 5.2 81 1.4 NW 13 15 7 8 1022.7 1022.2 0.0
27/10:00pm 8.7 5.2 5.4 80 1.5 WNW 13 17 7 9 1022.6 1022.1 0.0
27/09:30pm 8.7 5.2 5.4 80 1.5 WNW 13 15 7 8 1022.4 1021.9 0.0
27/09:00pm 9.5 6.4 5.7 77 1.8 WNW 11 15 6 8 1022.2 1021.6 0.0
27/08:30pm 10.1 6.7 5.7 74 2.1 WNW 13 17 7 9 1022.0 1021.4 0.0
27/08:00pm 10.6 7.2 6.0 73 2.2 WNW 13 15 7 8 1021.7 1021.1 0.0
27/07:30pm 11.4 7.6 5.9 69 2.6 WNW 15 19 8 10 1021.5 1020.9 0.0
27/07:00pm 12.6 9.3 6.4 66 3.0 WNW 13 15 7 8 1021.2 1020.6 0.0
27/06:30pm 13.1 10.3 6.9 66 3.1 WNW 11 13 6 7 1020.7 1020.1 0.0
27/06:00pm 13.0 10.5 6.4 64 3.2 WNW 9 11 5 6 1020.2 1019.6 0.0
27/05:30pm 14.3 11.2 5.7 56 4.2 WNW 11 13 6 7 1019.8 1019.2 0.0
27/05:00pm 16.5 13.4 5.5 48 5.4 NNW 11 17 6 9 1019.4 1018.8 0.0
27/04:30pm 16.1 12.6 5.4 49 5.2 NNW 13 17 7 9 1019.3 1018.7 0.0
27/04:00pm 17.0 13.8 5.3 46 5.7 NW 11 17 6 9 1019.2 1018.6 0.0
27/03:30pm 18.0 15.4 5.9 45 6.0 WSW 9 20 5 11 1019.1 1018.5 0.0
27/03:00pm 17.5 15.7 5.4 45 5.9 ESE 4 13 2 7 1019.1 1018.5 0.0
27/02:30pm 18.0 15.7 5.9 45 6.0 SSE 7 15 4 8 1019.1 1018.5 0.0
27/02:00pm 17.8 15.7 6.0 46 5.9 NE 6 15 3 8 1019.1 1018.5 0.0
27/01:30pm 16.0 13.3 5.6 50 5.1 WNW 9 13 5 7 1019.2 1018.6 0.0
27/01:00pm 15.7 12.9 5.3 50 5.0 WSW 9 13 5 7 1019.5 1018.9 0.0
27/12:30pm 16.8 14.1 7.4 54 4.8 NW 11 17 6 9 1019.8 1019.2 0.0
27/12:00pm 16.3 14.0 7.5 56 4.5 W 9 17 5 9 1020.2 1019.6 0.0
27/11:30am 15.4 12.9 6.4 55 4.5 NW 9 15 5 8 1020.5 1019.9 0.0
27/11:00am 14.9 12.5 7.0 59 3.9 WNW 9 17 5 9 1020.7 1020.1 0.0
27/10:30am 14.0 10.8 6.8 62 3.6 WNW 13 30 7 16 1020.9 1020.3 0.0
27/10:00am 13.2 9.9 6.3 63 3.3 W 13 20 7 11 1020.9 1020.3 0.0
27/09:30am 12.4 8.8 6.7 68 2.8 W 15 20 8 11 1021.0 1020.4 0.0
27/09:00am 11.8 7.5 7.1 73 2.3 WNW 19 24 10 13 1020.9 1020.3 0.2
27/08:30am 10.6 6.2 6.7 77 1.9 WNW 19 26 10 14 1020.5 1019.9 0.2
27/08:00am 9.4 4.8 6.5 82 1.4 WNW 20 26 11 14 1020.4 1019.8 0.2
27/07:30am 8.3 3.9 6.4 88 0.9 WNW 19 24 10 13 1020.1 1019.5 0.2
27/07:00am 7.3 3.2 6.1 92 0.6 NW 17 20 9 11 1019.6 1019.0 0.2
27/06:30am 6.8 2.3 6.1 95 0.3 WNW 19 22 10 12 1019.3 1018.7 0.2
27/06:00am 6.9 3.2 6.2 95 0.3 WNW 15 20 8 11 1019.1 1018.5 0.2
27/05:30am 7.1 3.4 6.4 95 0.3 WNW 15 19 8 10 1018.8 1018.2 0.2
27/05:00am 7.5 3.9 6.8 95 0.3 WNW 15 19 8 10 1018.6 1018.0 0.2
27/04:30am 7.4 4.2 6.7 95 0.3 WNW 13 17 7 9 1018.6 1018.0 0.2
27/04:00am 7.2 4.6 6.3 94 0.4 NW 9 13 5 7 1018.2 1017.6 0.2
27/03:30am 8.1 5.8 7.3 95 0.4 WNW 9 15 5 8 1018.2 1017.6 0.2
27/03:00am 8.7 5.5 8.3 97 0.2 WNW 15 20 8 11 1018.0 1017.4 0.2
27/02:30am 8.7 6.6 8.3 97 0.2 WNW 9 13 5 7 1017.9 1017.3 0.2
27/02:00am 8.3 6.0 7.4 94 0.4 WNW 9 11 5 6 1017.9 1017.3 0.2
27/01:30am 9.4 6.9 8.3 93 0.5 W 11 15 6 8 1018.1 1017.5 0.2
27/01:00am 9.8 7.0 8.6 92 0.6 W 13 17 7 9 1018.0 1017.4 0.2
27/12:30am 10.1 7.3 8.7 91 0.7 W 13 20 7 11 1017.9 1017.3 0.2
27/12:00am 10.0 7.5 8.4 90 0.8 W 11 17 6 9 1018.1 1017.5 0.2
 
Date/Time
EST
Temp
°C
App
Temp
°C
Dew
Point
Rel
Hum
%
Delta-T
°C
Wind Press
QNH
hPa
Press
MSL
hPa
Rain
since 9 am
mm
Dir
 
Spd
km/h
Gust
km/h
Spd
kts
Gust
kts
26/11:30pm 10.4 7.6 8.5 88 0.9 W 13 17 7 9 1018.1 1017.5 0.2
26/11:00pm 10.6 7.8 8.4 86 1.1 W 13 20 7 11 1018.1 1017.5 0.2
26/10:30pm 11.1 7.9 8.5 84 1.3 W 15 20 8 11 1018.1 1017.5 0.2
26/10:00pm 11.0 7.4 8.4 84 1.3 W 17 24 9 13 1018.2 1017.6 0.2
26/09:30pm 11.3 7.4 8.5 83 1.4 W 19 28 10 15 1018.1 1017.5 0.2
26/09:00pm 10.3 7.5 8.6 89 0.8 W 13 17 7 9 1018.3 1017.7 0.2
26/08:30pm 10.6 7.5 8.9 89 0.9 WNW 15 20 8 11 1018.0 1017.4 0.2
26/08:00pm 9.7 7.6 8.3 91 0.7 WNW 9 13 5 7 1017.8 1017.2 0.2
26/07:30pm 10.5 7.3 8.6 88 1.0 WNW 15 20 8 11 1017.6 1016.9 0.2
26/07:00pm 11.1 7.2 8.8 86 1.2 WNW 19 24 10 13 1017.3 1016.6 0.2
26/06:30pm 11.2 7.7 8.9 86 1.2 WNW 17 20 9 11 1016.9 1016.3 0.2
26/06:00pm 11.4 7.9 8.6 83 1.4 WNW 17 22 9 12 1016.4 1015.8 0.2
26/05:30pm 12.2 7.7 8.5 78 1.9 WNW 22 30 12 16 1016.0 1015.4 0.2
26/05:00pm 12.9 8.5 8.8 76 2.1 WNW 22 33 12 18 1015.7 1015.1 0.2
26/04:30pm 13.4 8.2 8.9 74 2.3 WNW 26 32 14 17 1015.5 1014.9 0.2
26/04:00pm 13.9 9.4 8.5 70 2.8 W 22 33 12 18 1015.4 1014.8 0.2
26/03:30pm 14.4 9.1 8.4 67 3.1 W 26 39 14 21 1014.8 1014.1 0.2
26/03:00pm 14.7 9.3 8.2 65 3.3 W 26 43 14 23 1014.6 1013.9 0.2
26/02:30pm 15.0 9.0 8.7 66 3.3 WNW 30 46 16 25 1014.1 1013.5 0.2
26/02:23pm 14.3 8.6 8.5 68 3.0 W 28 46 15 25 1014.1 1013.5 0.2
26/02:00pm 14.7 8.3 8.6 67 3.1 WNW 32 46 17 25 1013.9 1013.3 0.2
26/01:47pm 14.4 8.3 8.4 67 3.1 WNW 30 48 16 26 1013.8 1013.2 0.2
26/01:30pm 14.4 7.9 9.0 70 2.8 WNW 33 44 18 24 1013.5 1012.9 0.2
26/01:00pm 13.6 8.0 8.7 72 2.5 WNW 28 43 15 23 1013.5 1012.9 0.2
26/12:30pm 13.7 8.0 8.3 70 2.7 W 28 46 15 25 1013.2 1012.6 0.2
26/12:17pm 14.1 8.5 8.7 70 2.8 W 28 46 15 25 1013.1 1012.5 0.2
26/12:00pm 13.7 8.5 8.7 72 2.6 W 26 43 14 23 1013.1 1012.5 0.2
26/11:30am 13.5 7.9 8.8 73 2.4 W 28 44 15 24 1012.9 1012.2 0.2
26/11:00am 13.3 8.5 8.8 74 2.3 W 24 37 13 20 1013.0 1012.3 0.2
26/10:30am 12.8 7.1 8.5 75 2.2 W 28 43 15 23 1012.9 1012.2 0.2
26/10:00am 12.5 7.7 9.0 79 1.8 WNW 24 33 13 18 1013.2 1012.6 0.0
26/09:30am 11.8 6.5 8.5 80 1.7 WNW 26 39 14 21 1013.0 1012.3 0.0
26/09:00am 11.5 6.3 8.9 84 1.3 WNW 26 35 14 19 1013.0 1012.3 0.8
26/08:30am 11.0 5.8 8.9 87 1.1 WNW 26 35 14 19 1012.5 1011.8 0.8
26/08:00am 10.6 5.8 8.9 89 0.9 WNW 24 35 13 19 1012.0 1011.3 0.8
26/07:30am 10.0 6.0 9.2 95 0.4 WNW 20 28 11 15 1011.8 1011.1 0.8
26/07:00am 9.6 4.1 9.0 96 0.3 WNW 28 37 15 20 1011.1 1010.5 0.8
26/06:30am 9.3 4.5 9.0 98 0.2 WNW 24 32 13 17 1010.7 1010.0 0.8
26/06:00am 9.1 4.7 8.8 98 0.1 WNW 22 30 12 16 1010.6 1009.9 0.8
26/05:30am 9.3 4.5 8.8 97 0.2 WNW 24 32 13 17 1010.4 1009.7 0.4
26/05:00am 9.1 4.5 8.3 95 0.4 WNW 22 30 12 16 1010.1 1009.4 0.2
26/04:30am 8.8 4.7 8.0 95 0.4 NW 19 24 10 13 1009.7 1009.0 0.2
26/04:00am 9.0 4.8 8.1 94 0.4 WNW 20 28 11 15 1009.6 1008.9 0.2
26/03:30am 9.2 5.0 8.3 94 0.4 WNW 20 28 11 15 1009.7 1009.0 0.2
26/03:00am 9.2 5.9 8.0 92 0.6 WNW 15 20 8 11 1009.7 1009.0 0.2
26/02:30am 9.3 5.1 7.4 88 0.9 NW 19 24 10 13 1009.8 1009.1 0.0
26/02:00am 10.3 5.9 7.5 83 1.4 WNW 20 28 11 15 1010.1 1009.4 0.0
26/01:30am 9.9 4.3 7.3 84 1.3 WNW 26 41 14 22 1009.9 1009.2 0.0
26/01:00am 9.9 6.4 7.3 84 1.3 WNW 15 24 8 13 1010.2 1009.5 0.0
26/12:30am 10.1 5.9 7.3 83 1.4 NW 19 24 10 13 1010.5 1009.8 0.0
26/12:00am 10.3 6.8 7.2 81 1.5 W 15 22 8 12 1010.3 1009.6 0.0
 
Date/Time
EST
Temp
°C
App
Temp
°C
Dew
Point
Rel
Hum
%
Delta-T
°C
Wind Press
QNH
hPa
Press
MSL
hPa
Rain
since 9 am
mm
Dir
 
Spd
km/h
Gust
km/h
Spd
kts
Gust
kts
25/11:30pm 10.7 6.3 7.4 80 1.6 WNW 20 28 11 15 1010.5 1009.8 0.0
25/11:00pm 11.3 8.7 7.6 78 1.8 W 11 17 6 9 1010.5 1009.8 0.0
25/10:30pm 11.6 7.1 7.1 74 2.2 WSW 20 30 11 16 1010.0 1009.3 0.0
25/10:00pm 12.5 7.6 7.0 69 2.7 W 22 35 12 19 1010.0 1009.3 0.0
25/09:30pm 14.3 8.2 6.6 60 3.8 W 28 44 15 24 1009.7 1009.0 0.0
25/09:00pm 14.5 9.8 7.8 64 3.4 NW 22 30 12 16 1009.0 1008.3 0.0
25/08:30pm 13.1 10.8 7.5 69 2.8 WNW 9 13 5 7 1008.6 1008.0 0.0
25/08:00pm 13.4 10.8 7.6 68 2.9 WNW 11 13 6 7 1008.2 1007.5 0.0
25/07:30pm 15.1 11.8 8.1 63 3.6 WNW 15 20 8 11 1008.0 1007.3 0.0
25/07:00pm 16.5 12.4 8.0 57 4.4 WNW 19 24 10 13 1007.8 1007.1 0.0
25/06:30pm 17.6 12.4 7.1 50 5.4 WNW 24 32 13 17 1007.3 1006.6 0.0
25/06:00pm 17.6 13.1 6.2 47 5.7 NW 19 26 10 14 1006.8 1006.1 0.0
25/05:30pm 18.5 13.7 5.7 43 6.4 NW 20 26 11 14 1006.6 1005.9 0.0
25/05:00pm 20.4 15.7 5.2 37 7.6 NW 19 28 10 15 1006.3 1005.6 0.0

Other Formats:

Comma delimited format used in spreadsheet applications
http://www.bom.gov.au/fwo/IDN60801/IDN60801.95754.axf

JavaScript Object Notation format (JSON) in row-major order
http://www.bom.gov.au/fwo/IDN60801/IDN60801.95754.json